sensor_id;sensor_type;location;lat;lon;timestamp;temperature;humidity
14144;DHT22;7152;48.348;10.980;2022-07-22T00:01:50;20.00;99.90
14144;DHT22;7152;48.348;10.980;2022-07-22T00:04:16;19.90;99.90
14144;DHT22;7152;48.348;10.980;2022-07-22T00:06:42;19.90;99.90
14144;DHT22;7152;48.348;10.980;2022-07-22T00:09:08;19.80;99.90
14144;DHT22;7152;48.348;10.980;2022-07-22T00:11:34;19.80;99.90
14144;DHT22;7152;48.348;10.980;2022-07-22T00:14:00;19.80;99.90
14144;DHT22;7152;48.348;10.980;2022-07-22T00:16:26;19.80;99.90
14144;DHT22;7152;48.348;10.980;2022-07-22T00:18:51;19.70;99.90
14144;DHT22;7152;48.348;10.980;2022-07-22T00:21:17;19.70;99.90
14144;DHT22;7152;48.348;10.980;2022-07-22T00:23:43;19.70;99.90
14144;DHT22;7152;48.348;10.980;2022-07-22T00:26:09;19.70;99.90
14144;DHT22;7152;48.348;10.980;2022-07-22T00:28:35;19.70;99.90
14144;DHT22;7152;48.348;10.980;2022-07-22T00:31:01;19.70;99.90
14144;DHT22;7152;48.348;10.980;2022-07-22T00:33:27;19.60;99.90
14144;DHT22;7152;48.348;10.980;2022-07-22T00:35:52;19.60;99.90
14144;DHT22;7152;48.348;10.980;2022-07-22T00:38:18;19.50;99.90
14144;DHT22;7152;48.348;10.980;2022-07-22T00:40:43;19.50;99.90
14144;DHT22;7152;48.348;10.980;2022-07-22T00:43:09;19.50;99.90
14144;DHT22;7152;48.348;10.980;2022-07-22T00:45:35;19.50;99.90
14144;DHT22;7152;48.348;10.980;2022-07-22T00:48:01;19.50;99.90
14144;DHT22;7152;48.348;10.980;2022-07-22T00:50:26;19.40;99.90
14144;DHT22;7152;48.348;10.980;2022-07-22T00:52:52;19.40;99.90
14144;DHT22;7152;48.348;10.980;2022-07-22T00:55:18;19.40;99.90
14144;DHT22;7152;48.348;10.980;2022-07-22T00:57:44;19.40;99.90
14144;DHT22;7152;48.348;10.980;2022-07-22T01:00:15;19.30;99.90
14144;DHT22;7152;48.348;10.980;2022-07-22T01:02:41;19.30;99.90
14144;DHT22;7152;48.348;10.980;2022-07-22T01:05:07;19.20;99.90
14144;DHT22;7152;48.348;10.980;2022-07-22T01:07:33;19.10;99.90
14144;DHT22;7152;48.348;10.980;2022-07-22T01:09:59;19.00;99.90
14144;DHT22;7152;48.348;10.980;2022-07-22T01:12:24;19.10;99.90
14144;DHT22;7152;48.348;10.980;2022-07-22T01:14:50;19.00;99.90
14144;DHT22;7152;48.348;10.980;2022-07-22T01:17:16;19.00;99.90
14144;DHT22;7152;48.348;10.980;2022-07-22T01:19:42;19.00;99.90
14144;DHT22;7152;48.348;10.980;2022-07-22T01:22:08;18.90;99.90
14144;DHT22;7152;48.348;10.980;2022-07-22T01:24:34;18.90;99.90
14144;DHT22;7152;48.348;10.980;2022-07-22T01:27:00;18.90;99.90
14144;DHT22;7152;48.348;10.980;2022-07-22T01:29:26;18.90;99.90
14144;DHT22;7152;48.348;10.980;2022-07-22T01:31:52;18.90;99.90
14144;DHT22;7152;48.348;10.980;2022-07-22T01:34:18;18.90;99.90
14144;DHT22;7152;48.348;10.980;2022-07-22T01:36:43;19.00;99.90
14144;DHT22;7152;48.348;10.980;2022-07-22T01:39:09;18.90;99.90
14144;DHT22;7152;48.348;10.980;2022-07-22T01:41:35;18.90;99.90
14144;DHT22;7152;48.348;10.980;2022-07-22T01:44:00;18.90;99.90
14144;DHT22;7152;48.348;10.980;2022-07-22T01:46:26;18.90;99.90
14144;DHT22;7152;48.348;10.980;2022-07-22T01:48:52;18.80;99.90
14144;DHT22;7152;48.348;10.980;2022-07-22T01:51:19;18.70;99.90
14144;DHT22;7152;48.348;10.980;2022-07-22T01:53:44;18.70;99.90
14144;DHT22;7152;48.348;10.980;2022-07-22T01:56:10;18.70;99.90
14144;DHT22;7152;48.348;10.980;2022-07-22T01:58:36;18.60;99.90
14144;DHT22;7152;48.348;10.980;2022-07-22T02:01:02;18.60;99.90
14144;DHT22;7152;48.348;10.980;2022-07-22T02:03:28;18.50;99.90
14144;DHT22;7152;48.348;10.980;2022-07-22T02:05:53;18.50;99.90
14144;DHT22;7152;48.348;10.980;2022-07-22T02:08:20;18.50;99.90
14144;DHT22;7152;48.348;10.980;2022-07-22T02:10:45;18.40;99.90
14144;DHT22;7152;48.348;10.980;2022-07-22T02:13:11;18.40;99.90
14144;DHT22;7152;48.348;10.980;2022-07-22T02:15:37;18.30;99.90
14144;DHT22;7152;48.348;10.980;2022-07-22T02:18:13;18.30;99.90
14144;DHT22;7152;48.348;10.980;2022-07-22T02:20:39;18.30;99.90
14144;DHT22;7152;48.348;10.980;2022-07-22T02:23:05;18.30;99.90
14144;DHT22;7152;48.348;10.980;2022-07-22T02:25:31;18.30;99.90
14144;DHT22;7152;48.348;10.980;2022-07-22T02:27:57;18.30;99.90
14144;DHT22;7152;48.348;10.980;2022-07-22T02:30:23;18.20;99.90
14144;DHT22;7152;48.348;10.980;2022-07-22T02:32:49;18.20;99.90
14144;DHT22;7152;48.348;10.980;2022-07-22T02:35:14;18.20;99.90
14144;DHT22;7152;48.348;10.980;2022-07-22T02:37:40;18.20;99.90
14144;DHT22;7152;48.348;10.980;2022-07-22T02:40:06;18.20;99.90
14144;DHT22;7152;48.348;10.980;2022-07-22T02:42:33;18.10;99.90
14144;DHT22;7152;48.348;10.980;2022-07-22T02:44:58;18.10;99.90
14144;DHT22;7152;48.348;10.980;2022-07-22T02:47:24;18.10;99.90
14144;DHT22;7152;48.348;10.980;2022-07-22T02:49:50;18.00;99.90
14144;DHT22;7152;48.348;10.980;2022-07-22T02:52:16;18.10;99.90
14144;DHT22;7152;48.348;10.980;2022-07-22T02:54:41;18.00;99.90
14144;DHT22;7152;48.348;10.980;2022-07-22T02:57:07;18.00;99.90
14144;DHT22;7152;48.348;10.980;2022-07-22T02:59:34;18.00;99.90
14144;DHT22;7152;48.348;10.980;2022-07-22T03:02:00;18.00;99.90
14144;DHT22;7152;48.348;10.980;2022-07-22T03:04:25;17.90;99.90
14144;DHT22;7152;48.348;10.980;2022-07-22T03:06:51;17.90;99.90
14144;DHT22;7152;48.348;10.980;2022-07-22T03:09:17;17.90;99.90
14144;DHT22;7152;48.348;10.980;2022-07-22T03:11:42;17.90;99.90
14144;DHT22;7152;48.348;10.980;2022-07-22T03:14:08;17.80;99.90
14144;DHT22;7152;48.348;10.980;2022-07-22T03:16:34;17.80;99.90
14144;DHT22;7152;48.348;10.980;2022-07-22T03:19:00;17.80;99.90
14144;DHT22;7152;48.348;10.980;2022-07-22T03:21:25;17.80;99.90
14144;DHT22;7152;48.348;10.980;2022-07-22T03:23:51;17.70;99.90
14144;DHT22;7152;48.348;10.980;2022-07-22T03:26:20;17.70;99.90
14144;DHT22;7152;48.348;10.980;2022-07-22T03:28:46;17.70;99.90
14144;DHT22;7152;48.348;10.980;2022-07-22T03:31:12;17.70;99.90
14144;DHT22;7152;48.348;10.980;2022-07-22T03:33:38;17.70;99.90
14144;DHT22;7152;48.348;10.980;2022-07-22T03:36:03;17.70;99.90
14144;DHT22;7152;48.348;10.980;2022-07-22T03:38:31;17.70;99.90
14144;DHT22;7152;48.348;10.980;2022-07-22T03:40:56;17.60;99.90
14144;DHT22;7152;48.348;10.980;2022-07-22T03:43:22;17.60;99.90
14144;DHT22;7152;48.348;10.980;2022-07-22T03:45:48;17.60;99.90
14144;DHT22;7152;48.348;10.980;2022-07-22T03:48:13;17.60;99.90
14144;DHT22;7152;48.348;10.980;2022-07-22T03:50:39;17.50;99.90
14144;DHT22;7152;48.348;10.980;2022-07-22T03:53:05;17.50;99.90
14144;DHT22;7152;48.348;10.980;2022-07-22T03:55:30;17.50;99.90
14144;DHT22;7152;48.348;10.980;2022-07-22T03:57:56;17.50;99.90
14144;DHT22;7152;48.348;10.980;2022-07-22T04:00:22;17.50;99.90
14144;DHT22;7152;48.348;10.980;2022-07-22T04:02:47;17.50;99.90
14144;DHT22;7152;48.348;10.980;2022-07-22T04:05:13;17.50;99.90
14144;DHT22;7152;48.348;10.980;2022-07-22T04:07:38;17.50;99.90
14144;DHT22;7152;48.348;10.980;2022-07-22T04:10:04;17.50;99.90
14144;DHT22;7152;48.348;10.980;2022-07-22T04:12:38;17.50;99.90
14144;DHT22;7152;48.348;10.980;2022-07-22T04:15:05;17.50;99.90
14144;DHT22;7152;48.348;10.980;2022-07-22T04:17:31;17.50;99.90
14144;DHT22;7152;48.348;10.980;2022-07-22T04:19:57;17.50;99.90
14144;DHT22;7152;48.348;10.980;2022-07-22T04:22:24;17.50;99.90
14144;DHT22;7152;48.348;10.980;2022-07-22T04:24:50;17.50;99.90
14144;DHT22;7152;48.348;10.980;2022-07-22T04:27:16;17.50;99.90
14144;DHT22;7152;48.348;10.980;2022-07-22T04:29:41;17.50;99.90
14144;DHT22;7152;48.348;10.980;2022-07-22T04:32:07;17.50;99.90
14144;DHT22;7152;48.348;10.980;2022-07-22T04:34:32;17.50;99.90
14144;DHT22;7152;48.348;10.980;2022-07-22T04:36:58;17.50;99.90
14144;DHT22;7152;48.348;10.980;2022-07-22T04:39:24;17.50;99.90
14144;DHT22;7152;48.348;10.980;2022-07-22T04:41:49;17.60;99.90
14144;DHT22;7152;48.348;10.980;2022-07-22T04:44:15;17.40;99.90
14144;DHT22;7152;48.348;10.980;2022-07-22T04:46:41;17.60;99.90
14144;DHT22;7152;48.348;10.980;2022-07-22T04:49:06;17.60;99.90
14144;DHT22;7152;48.348;10.980;2022-07-22T04:51:32;17.70;99.90
14144;DHT22;7152;48.348;10.980;2022-07-22T04:53:58;17.70;99.90
14144;DHT22;7152;48.348;10.980;2022-07-22T04:56:23;17.70;99.90
14144;DHT22;7152;48.348;10.980;2022-07-22T04:58:49;17.70;99.90
14144;DHT22;7152;48.348;10.980;2022-07-22T05:01:16;17.70;99.90
14144;DHT22;7152;48.348;10.980;2022-07-22T05:03:42;17.80;99.90
14144;DHT22;7152;48.348;10.980;2022-07-22T05:06:08;17.80;99.90
14144;DHT22;7152;48.348;10.980;2022-07-22T05:08:34;17.80;99.90
14144;DHT22;7152;48.348;10.980;2022-07-22T05:10:59;17.80;99.90
14144;DHT22;7152;48.348;10.980;2022-07-22T05:13:25;17.90;99.90
14144;DHT22;7152;48.348;10.980;2022-07-22T05:15:51;17.90;99.90
14144;DHT22;7152;48.348;10.980;2022-07-22T05:18:17;18.00;99.90
14144;DHT22;7152;48.348;10.980;2022-07-22T05:20:43;18.00;99.90
14144;DHT22;7152;48.348;10.980;2022-07-22T05:23:08;18.10;99.90
14144;DHT22;7152;48.348;10.980;2022-07-22T05:25:34;18.10;99.90
14144;DHT22;7152;48.348;10.980;2022-07-22T05:28:00;18.20;99.90
14144;DHT22;7152;48.348;10.980;2022-07-22T05:30:26;18.20;99.90
14144;DHT22;7152;48.348;10.980;2022-07-22T05:32:52;18.30;99.90
14144;DHT22;7152;48.348;10.980;2022-07-22T05:35:18;18.40;99.90
14144;DHT22;7152;48.348;10.980;2022-07-22T05:37:44;18.40;99.90
14144;DHT22;7152;48.348;10.980;2022-07-22T05:40:10;18.40;99.90
14144;DHT22;7152;48.348;10.980;2022-07-22T05:42:35;18.50;99.90
14144;DHT22;7152;48.348;10.980;2022-07-22T05:45:01;18.50;99.90
14144;DHT22;7152;48.348;10.980;2022-07-22T05:47:26;18.60;99.90
14144;DHT22;7152;48.348;10.980;2022-07-22T05:49:52;18.60;99.90
14144;DHT22;7152;48.348;10.980;2022-07-22T05:52:18;18.70;99.90
14144;DHT22;7152;48.348;10.980;2022-07-22T05:54:43;18.70;99.90
14144;DHT22;7152;48.348;10.980;2022-07-22T05:57:09;18.80;99.90
14144;DHT22;7152;48.348;10.980;2022-07-22T05:59:36;18.80;99.90
14144;DHT22;7152;48.348;10.980;2022-07-22T06:02:02;18.90;99.90
14144;DHT22;7152;48.348;10.980;2022-07-22T06:04:28;18.90;99.90
14144;DHT22;7152;48.348;10.980;2022-07-22T06:06:53;19.00;99.90
14144;DHT22;7152;48.348;10.980;2022-07-22T06:09:19;19.10;99.90
14144;DHT22;7152;48.348;10.980;2022-07-22T06:11:45;19.20;99.90
14144;DHT22;7152;48.348;10.980;2022-07-22T06:14:10;19.30;99.90
14144;DHT22;7152;48.348;10.980;2022-07-22T06:16:36;19.40;99.90
14144;DHT22;7152;48.348;10.980;2022-07-22T06:19:02;19.40;99.90
14144;DHT22;7152;48.348;10.980;2022-07-22T06:21:28;19.50;99.90
14144;DHT22;7152;48.348;10.980;2022-07-22T06:23:54;19.60;99.90
14144;DHT22;7152;48.348;10.980;2022-07-22T06:26:19;19.70;99.90
14144;DHT22;7152;48.348;10.980;2022-07-22T06:28:45;19.80;99.90
14144;DHT22;7152;48.348;10.980;2022-07-22T06:31:11;19.90;99.90
14144;DHT22;7152;48.348;10.980;2022-07-22T06:33:37;20.00;99.90
14144;DHT22;7152;48.348;10.980;2022-07-22T06:36:03;20.20;99.90
14144;DHT22;7152;48.348;10.980;2022-07-22T06:38:29;20.30;99.90
14144;DHT22;7152;48.348;10.980;2022-07-22T06:40:54;20.40;99.90
14144;DHT22;7152;48.348;10.980;2022-07-22T06:43:20;20.60;99.90
14144;DHT22;7152;48.348;10.980;2022-07-22T06:45:46;20.70;99.90
14144;DHT22;7152;48.348;10.980;2022-07-22T06:48:11;20.80;99.90
14144;DHT22;7152;48.348;10.980;2022-07-22T06:50:37;20.90;99.90
14144;DHT22;7152;48.348;10.980;2022-07-22T06:53:03;21.10;99.90
14144;DHT22;7152;48.348;10.980;2022-07-22T06:55:28;21.20;99.90
14144;DHT22;7152;48.348;10.980;2022-07-22T06:57:54;21.30;99.90
14144;DHT22;7152;48.348;10.980;2022-07-22T07:00:20;21.40;99.90
14144;DHT22;7152;48.348;10.980;2022-07-22T07:02:46;21.50;99.90
14144;DHT22;7152;48.348;10.980;2022-07-22T07:05:12;21.60;99.90
14144;DHT22;7152;48.348;10.980;2022-07-22T07:07:38;21.70;99.90
14144;DHT22;7152;48.348;10.980;2022-07-22T07:10:04;21.90;99.90
14144;DHT22;7152;48.348;10.980;2022-07-22T07:12:30;22.00;99.90
14144;DHT22;7152;48.348;10.980;2022-07-22T07:14:55;22.10;99.90
14144;DHT22;7152;48.348;10.980;2022-07-22T07:17:21;22.20;99.90
14144;DHT22;7152;48.348;10.980;2022-07-22T07:19:47;22.30;99.90
14144;DHT22;7152;48.348;10.980;2022-07-22T07:22:12;22.50;99.90
14144;DHT22;7152;48.348;10.980;2022-07-22T07:24:38;22.60;99.90
14144;DHT22;7152;48.348;10.980;2022-07-22T07:27:04;22.70;99.90
14144;DHT22;7152;48.348;10.980;2022-07-22T07:29:29;22.90;99.90
14144;DHT22;7152;48.348;10.980;2022-07-22T07:31:55;23.00;99.90
14144;DHT22;7152;48.348;10.980;2022-07-22T07:34:20;23.20;99.90
14144;DHT22;7152;48.348;10.980;2022-07-22T07:36:46;23.20;99.90
14144;DHT22;7152;48.348;10.980;2022-07-22T07:39:12;23.40;99.90
14144;DHT22;7152;48.348;10.980;2022-07-22T07:41:37;23.50;99.90
14144;DHT22;7152;48.348;10.980;2022-07-22T07:44:03;23.60;99.90
14144;DHT22;7152;48.348;10.980;2022-07-22T07:46:29;23.70;99.90
14144;DHT22;7152;48.348;10.980;2022-07-22T07:48:55;23.80;99.90
14144;DHT22;7152;48.348;10.980;2022-07-22T07:51:20;23.90;99.90
14144;DHT22;7152;48.348;10.980;2022-07-22T07:53:46;24.00;99.90
14144;DHT22;7152;48.348;10.980;2022-07-22T07:56:12;24.10;99.90
14144;DHT22;7152;48.348;10.980;2022-07-22T07:58:37;24.20;99.90
14144;DHT22;7152;48.348;10.980;2022-07-22T08:01:04;24.20;99.90
14144;DHT22;7152;48.348;10.980;2022-07-22T08:03:30;24.30;99.90
14144;DHT22;7152;48.348;10.980;2022-07-22T08:05:56;24.50;99.90
14144;DHT22;7152;48.348;10.980;2022-07-22T08:08:23;24.60;99.90
14144;DHT22;7152;48.348;10.980;2022-07-22T08:10:48;24.60;99.90
14144;DHT22;7152;48.348;10.980;2022-07-22T08:13:14;24.80;99.90
14144;DHT22;7152;48.348;10.980;2022-07-22T08:15:40;24.80;99.90
14144;DHT22;7152;48.348;10.980;2022-07-22T08:18:06;24.90;99.90
14144;DHT22;7152;48.348;10.980;2022-07-22T08:20:32;25.00;99.90
14144;DHT22;7152;48.348;10.980;2022-07-22T08:22:57;25.10;99.90
14144;DHT22;7152;48.348;10.980;2022-07-22T08:25:23;25.20;99.90
14144;DHT22;7152;48.348;10.980;2022-07-22T08:27:49;25.30;99.90
14144;DHT22;7152;48.348;10.980;2022-07-22T08:30:16;25.40;99.90
14144;DHT22;7152;48.348;10.980;2022-07-22T08:32:42;25.40;99.90
14144;DHT22;7152;48.348;10.980;2022-07-22T08:35:09;25.60;99.90
14144;DHT22;7152;48.348;10.980;2022-07-22T08:37:35;25.60;99.90
14144;DHT22;7152;48.348;10.980;2022-07-22T08:40:01;25.70;99.90
14144;DHT22;7152;48.348;10.980;2022-07-22T08:42:27;25.90;99.90
14144;DHT22;7152;48.348;10.980;2022-07-22T08:44:54;25.90;99.90
14144;DHT22;7152;48.348;10.980;2022-07-22T08:47:22;26.00;99.90
14144;DHT22;7152;48.348;10.980;2022-07-22T08:49:49;26.10;99.90
14144;DHT22;7152;48.348;10.980;2022-07-22T08:52:15;26.30;99.90
14144;DHT22;7152;48.348;10.980;2022-07-22T08:54:40;26.40;99.90
14144;DHT22;7152;48.348;10.980;2022-07-22T08:57:06;26.40;99.90
14144;DHT22;7152;48.348;10.980;2022-07-22T08:59:32;26.60;99.90
14144;DHT22;7152;48.348;10.980;2022-07-22T09:02:16;26.70;99.90
14144;DHT22;7152;48.348;10.980;2022-07-22T09:04:54;26.80;99.90
14144;DHT22;7152;48.348;10.980;2022-07-22T09:07:38;27.00;99.90
14144;DHT22;7152;48.348;10.980;2022-07-22T09:10:06;27.10;99.90
14144;DHT22;7152;48.348;10.980;2022-07-22T09:12:32;27.20;99.90
14144;DHT22;7152;48.348;10.980;2022-07-22T09:15:01;27.30;99.90
14144;DHT22;7152;48.348;10.980;2022-07-22T09:17:33;27.50;99.90
14144;DHT22;7152;48.348;10.980;2022-07-22T09:20:02;27.60;99.90
14144;DHT22;7152;48.348;10.980;2022-07-22T09:22:43;27.70;99.90
14144;DHT22;7152;48.348;10.980;2022-07-22T09:27:56;27.90;99.90
14144;DHT22;7152;48.348;10.980;2022-07-22T09:30:36;28.00;99.90
14144;DHT22;7152;48.348;10.980;2022-07-22T09:33:03;28.20;99.90
14144;DHT22;7152;48.348;10.980;2022-07-22T09:35:29;28.30;99.90
14144;DHT22;7152;48.348;10.980;2022-07-22T09:37:57;28.40;99.90
14144;DHT22;7152;48.348;10.980;2022-07-22T09:40:25;28.50;99.90
14144;DHT22;7152;48.348;10.980;2022-07-22T09:42:53;28.70;99.90
14144;DHT22;7152;48.348;10.980;2022-07-22T09:45:20;28.80;99.90
14144;DHT22;7152;48.348;10.980;2022-07-22T09:47:47;29.00;99.90
14144;DHT22;7152;48.348;10.980;2022-07-22T09:52:52;29.30;99.90
14144;DHT22;7152;48.348;10.980;2022-07-22T09:55:21;29.30;99.90
14144;DHT22;7152;48.348;10.980;2022-07-22T09:57:48;29.20;99.90
14144;DHT22;7152;48.348;10.980;2022-07-22T10:00:16;29.20;99.90
14144;DHT22;7152;48.348;10.980;2022-07-22T10:05:12;29.20;99.90
14144;DHT22;7152;48.348;10.980;2022-07-22T10:07:41;29.30;99.90
14144;DHT22;7152;48.348;10.980;2022-07-22T10:10:08;29.30;99.90
14144;DHT22;7152;48.348;10.980;2022-07-22T10:12:36;29.30;99.90
14144;DHT22;7152;48.348;10.980;2022-07-22T10:15:03;29.30;99.90
14144;DHT22;7152;48.348;10.980;2022-07-22T10:17:29;29.40;99.90
14144;DHT22;7152;48.348;10.980;2022-07-22T10:19:56;29.50;99.90
14144;DHT22;7152;48.348;10.980;2022-07-22T10:25:09;29.70;99.90
14144;DHT22;7152;48.348;10.980;2022-07-22T10:28:00;29.90;99.90
14144;DHT22;7152;48.348;10.980;2022-07-22T10:30:32;30.10;99.90
14144;DHT22;7152;48.348;10.980;2022-07-22T10:33:15;30.20;99.90
14144;DHT22;7152;48.348;10.980;2022-07-22T10:38:10;30.60;99.90
14144;DHT22;7152;48.348;10.980;2022-07-22T10:41:05;30.70;99.90
14144;DHT22;7152;48.348;10.980;2022-07-22T10:46:06;31.10;99.40
14144;DHT22;7152;48.348;10.980;2022-07-22T10:51:09;31.40;98.80
14144;DHT22;7152;48.348;10.980;2022-07-22T10:54:08;31.70;98.70
14144;DHT22;7152;48.348;10.980;2022-07-22T10:56:35;31.90;97.20
14144;DHT22;7152;48.348;10.980;2022-07-22T11:01:36;32.40;96.60
14144;DHT22;7152;48.348;10.980;2022-07-22T11:04:14;32.70;96.10
14144;DHT22;7152;48.348;10.980;2022-07-22T11:06:40;32.90;94.90
14144;DHT22;7152;48.348;10.980;2022-07-22T11:09:11;33.20;94.50
14144;DHT22;7152;48.348;10.980;2022-07-22T11:14:23;33.70;93.20
14144;DHT22;7152;48.348;10.980;2022-07-22T11:16:59;34.00;91.30
14144;DHT22;7152;48.348;10.980;2022-07-22T11:19:28;34.30;91.30
14144;DHT22;7152;48.348;10.980;2022-07-22T11:22:07;34.60;90.70
14144;DHT22;7152;48.348;10.980;2022-07-22T11:24:34;34.90;87.90
14144;DHT22;7152;48.348;10.980;2022-07-22T11:27:00;35.20;88.50
14144;DHT22;7152;48.348;10.980;2022-07-22T11:29:28;35.40;86.60
14144;DHT22;7152;48.348;10.980;2022-07-22T11:31:56;35.70;85.10
14144;DHT22;7152;48.348;10.980;2022-07-22T11:34:22;36.00;84.10
14144;DHT22;7152;48.348;10.980;2022-07-22T11:36:49;36.30;82.30
14144;DHT22;7152;48.348;10.980;2022-07-22T11:39:25;36.70;81.40
14144;DHT22;7152;48.348;10.980;2022-07-22T11:41:53;37.10;78.60
14144;DHT22;7152;48.348;10.980;2022-07-22T11:44:27;37.40;77.10
14144;DHT22;7152;48.348;10.980;2022-07-22T11:46:53;37.70;75.40
14144;DHT22;7152;48.348;10.980;2022-07-22T11:49:24;38.10;74.00
14144;DHT22;7152;48.348;10.980;2022-07-22T11:51:51;38.10;71.80
14144;DHT22;7152;48.348;10.980;2022-07-22T11:54:16;38.20;70.70
14144;DHT22;7152;48.348;10.980;2022-07-22T11:56:42;38.50;70.10
14144;DHT22;7152;48.348;10.980;2022-07-22T11:59:12;38.80;69.90
14144;DHT22;7152;48.348;10.980;2022-07-22T12:01:38;39.00;67.40
14144;DHT22;7152;48.348;10.980;2022-07-22T12:04:16;39.10;66.90
14144;DHT22;7152;48.348;10.980;2022-07-22T12:06:43;39.30;65.80
14144;DHT22;7152;48.348;10.980;2022-07-22T12:09:24;39.60;65.90
14144;DHT22;7152;48.348;10.980;2022-07-22T12:11:52;40.00;64.60
14144;DHT22;7152;48.348;10.980;2022-07-22T12:14:21;40.30;64.00
14144;DHT22;7152;48.348;10.980;2022-07-22T12:16:56;40.60;63.30
14144;DHT22;7152;48.348;10.980;2022-07-22T12:19:22;41.00;61.90
14144;DHT22;7152;48.348;10.980;2022-07-22T12:21:57;41.40;61.30
14144;DHT22;7152;48.348;10.980;2022-07-22T12:24:31;41.70;59.70
14144;DHT22;7152;48.348;10.980;2022-07-22T12:27:08;41.80;58.20
14144;DHT22;7152;48.348;10.980;2022-07-22T12:32:15;41.90;57.40
14144;DHT22;7152;48.348;10.980;2022-07-22T12:34:46;42.30;56.10
14144;DHT22;7152;48.348;10.980;2022-07-22T12:37:22;42.60;55.10
14144;DHT22;7152;48.348;10.980;2022-07-22T12:42:30;42.70;54.40
14144;DHT22;7152;48.348;10.980;2022-07-22T12:52:59;43.50;52.60
14144;DHT22;7152;48.348;10.980;2022-07-22T12:55:26;43.70;52.90
14144;DHT22;7152;48.348;10.980;2022-07-22T12:57:52;43.70;52.80
14144;DHT22;7152;48.348;10.980;2022-07-22T13:00:23;43.90;52.50
14144;DHT22;7152;48.348;10.980;2022-07-22T13:02:49;44.00;51.60
14144;DHT22;7152;48.348;10.980;2022-07-22T13:05:15;44.20;51.10
14144;DHT22;7152;48.348;10.980;2022-07-22T13:07:41;44.20;50.00
14144;DHT22;7152;48.348;10.980;2022-07-22T13:10:08;44.20;49.10
14144;DHT22;7152;48.348;10.980;2022-07-22T13:12:33;44.20;48.80
14144;DHT22;7152;48.348;10.980;2022-07-22T13:14:59;44.40;48.70
14144;DHT22;7152;48.348;10.980;2022-07-22T13:17:25;44.70;48.50
14144;DHT22;7152;48.348;10.980;2022-07-22T13:19:50;45.00;48.70
14144;DHT22;7152;48.348;10.980;2022-07-22T13:22:16;45.20;48.60
14144;DHT22;7152;48.348;10.980;2022-07-22T13:24:42;45.20;48.20
14144;DHT22;7152;48.348;10.980;2022-07-22T13:27:07;45.20;47.50
14144;DHT22;7152;48.348;10.980;2022-07-22T13:29:33;45.40;47.30
14144;DHT22;7152;48.348;10.980;2022-07-22T13:31:59;45.30;47.00
14144;DHT22;7152;48.348;10.980;2022-07-22T13:34:24;45.40;46.90
14144;DHT22;7152;48.348;10.980;2022-07-22T13:36:50;45.60;46.40
14144;DHT22;7152;48.348;10.980;2022-07-22T13:39:16;45.70;46.00
14144;DHT22;7152;48.348;10.980;2022-07-22T13:41:42;45.90;45.70
14144;DHT22;7152;48.348;10.980;2022-07-22T13:44:08;45.80;45.10
14144;DHT22;7152;48.348;10.980;2022-07-22T13:46:34;46.10;45.20
14144;DHT22;7152;48.348;10.980;2022-07-22T13:49:00;46.30;45.30
14144;DHT22;7152;48.348;10.980;2022-07-22T13:51:26;46.70;45.30
14144;DHT22;7152;48.348;10.980;2022-07-22T13:53:52;46.90;45.00
14144;DHT22;7152;48.348;10.980;2022-07-22T13:56:17;46.50;43.60
14144;DHT22;7152;48.348;10.980;2022-07-22T13:58:43;46.50;43.40
14144;DHT22;7152;48.348;10.980;2022-07-22T14:01:10;46.80;44.10
14144;DHT22;7152;48.348;10.980;2022-07-22T14:03:36;47.00;44.30
14144;DHT22;7152;48.348;10.980;2022-07-22T14:06:03;47.20;44.00
14144;DHT22;7152;48.348;10.980;2022-07-22T14:08:29;47.50;43.10
14144;DHT22;7152;48.348;10.980;2022-07-22T14:10:54;47.30;43.00
14144;DHT22;7152;48.348;10.980;2022-07-22T14:13:20;47.20;42.90
14144;DHT22;7152;48.348;10.980;2022-07-22T14:15:45;47.20;43.10
14144;DHT22;7152;48.348;10.980;2022-07-22T14:18:11;47.30;43.20
14144;DHT22;7152;48.348;10.980;2022-07-22T14:20:37;47.40;43.00
14144;DHT22;7152;48.348;10.980;2022-07-22T14:23:03;47.40;42.80
14144;DHT22;7152;48.348;10.980;2022-07-22T14:25:31;47.70;42.90
14144;DHT22;7152;48.348;10.980;2022-07-22T14:27:57;47.70;42.70
14144;DHT22;7152;48.348;10.980;2022-07-22T14:30:23;47.30;43.00
14144;DHT22;7152;48.348;10.980;2022-07-22T14:32:49;47.40;43.00
14144;DHT22;7152;48.348;10.980;2022-07-22T14:35:15;47.20;42.90
14144;DHT22;7152;48.348;10.980;2022-07-22T14:37:41;47.10;42.60
14144;DHT22;7152;48.348;10.980;2022-07-22T14:40:07;47.40;42.90
14144;DHT22;7152;48.348;10.980;2022-07-22T14:42:33;47.50;42.60
14144;DHT22;7152;48.348;10.980;2022-07-22T14:44:58;47.60;42.30
14144;DHT22;7152;48.348;10.980;2022-07-22T14:47:24;47.90;41.80
14144;DHT22;7152;48.348;10.980;2022-07-22T14:49:50;48.20;41.50
14144;DHT22;7152;48.348;10.980;2022-07-22T14:52:15;48.00;41.80
14144;DHT22;7152;48.348;10.980;2022-07-22T14:54:41;47.90;41.20
14144;DHT22;7152;48.348;10.980;2022-07-22T14:57:06;48.10;41.10
14144;DHT22;7152;48.348;10.980;2022-07-22T14:59:33;48.10;40.70
14144;DHT22;7152;48.348;10.980;2022-07-22T15:01:58;48.10;40.70
14144;DHT22;7152;48.348;10.980;2022-07-22T15:04:24;48.20;40.80
14144;DHT22;7152;48.348;10.980;2022-07-22T15:06:50;48.30;40.60
14144;DHT22;7152;48.348;10.980;2022-07-22T15:09:15;48.50;40.40
14144;DHT22;7152;48.348;10.980;2022-07-22T15:11:41;48.50;39.60
14144;DHT22;7152;48.348;10.980;2022-07-22T15:14:06;48.40;39.20
14144;DHT22;7152;48.348;10.980;2022-07-22T15:16:32;48.40;40.40
14144;DHT22;7152;48.348;10.980;2022-07-22T15:18:59;48.20;39.40
14144;DHT22;7152;48.348;10.980;2022-07-22T15:21:25;47.60;39.10
14144;DHT22;7152;48.348;10.980;2022-07-22T15:23:50;47.20;39.40
14144;DHT22;7152;48.348;10.980;2022-07-22T15:26:16;47.10;39.10
14144;DHT22;7152;48.348;10.980;2022-07-22T15:28:41;47.30;39.30
14144;DHT22;7152;48.348;10.980;2022-07-22T15:31:08;47.60;38.90
14144;DHT22;7152;48.348;10.980;2022-07-22T15:33:34;47.80;39.00
14144;DHT22;7152;48.348;10.980;2022-07-22T15:36:00;47.70;39.50
14144;DHT22;7152;48.348;10.980;2022-07-22T15:38:26;47.50;39.90
14144;DHT22;7152;48.348;10.980;2022-07-22T15:40:51;47.80;40.10
14144;DHT22;7152;48.348;10.980;2022-07-22T15:43:17;47.90;39.50
14144;DHT22;7152;48.348;10.980;2022-07-22T15:45:43;47.80;39.30
14144;DHT22;7152;48.348;10.980;2022-07-22T15:48:08;47.70;39.50
14144;DHT22;7152;48.348;10.980;2022-07-22T15:50:34;47.50;39.50
14144;DHT22;7152;48.348;10.980;2022-07-22T15:53:00;47.30;39.90
14144;DHT22;7152;48.348;10.980;2022-07-22T15:55:26;47.20;39.30
14144;DHT22;7152;48.348;10.980;2022-07-22T15:57:55;47.10;39.10
14144;DHT22;7152;48.348;10.980;2022-07-22T16:00:39;47.40;39.30
14144;DHT22;7152;48.348;10.980;2022-07-22T16:03:04;47.50;39.20
14144;DHT22;7152;48.348;10.980;2022-07-22T16:05:30;47.40;39.30